createdAt,value
2022-08-05T00:02:34.328Z,51.29
2022-08-05T00:06:04.960Z,51.48
2022-08-05T00:09:01.764Z,51.62
2022-08-05T00:12:05.317Z,51.18
2022-08-05T00:15:56.451Z,51.39
2022-08-05T00:18:39.049Z,51.65
2022-08-05T00:21:42.641Z,51.26
2022-08-05T00:24:46.922Z,51.61
2022-08-05T00:27:57.991Z,51.81
2022-08-05T00:31:02.741Z,51.89
2022-08-05T00:34:55.793Z,52.38
2022-08-05T00:37:51.018Z,52.60
2022-08-05T00:40:57.408Z,52.85
2022-08-05T00:44:00.395Z,52.38
2022-08-05T00:47:04.079Z,52.87
2022-08-05T00:50:09.698Z,52.00
2022-08-05T00:54:00.820Z,52.64
2022-08-05T00:56:36.794Z,52.75
2022-08-05T00:59:44.172Z,52.77
2022-08-05T01:02:47.509Z,52.74
2022-08-05T01:05:54.800Z,52.71
2022-08-05T01:08:57.854Z,53.00
2022-08-05T01:12:17.982Z,53.34
2022-08-05T01:15:36.241Z,51.83
2022-08-05T01:18:48.104Z,52.60
2022-08-05T01:22:28.090Z,51.89
2022-08-05T01:25:53.209Z,51.92
2022-08-05T01:29:04.312Z,52.17
2022-08-05T01:32:18.452Z,52.28
2022-08-05T01:35:51.940Z,52.36
2022-08-05T01:38:51.655Z,52.30
2022-08-05T01:41:56.885Z,52.51
2022-08-05T01:45:03.204Z,53.59
2022-08-05T01:48:10.225Z,54.21
2022-08-05T01:51:15.743Z,53.60
2022-08-05T01:54:23.642Z,53.71
2022-08-05T01:58:10.808Z,54.52
2022-08-05T02:00:58.955Z,54.03
2022-08-05T02:04:04.085Z,54.91
2022-08-05T02:07:07.009Z,56.08
2022-08-05T02:10:11.314Z,55.92
2022-08-05T02:13:25.765Z,56.60
2022-08-05T02:16:35.656Z,57.19
2022-08-05T02:19:47.665Z,57.52
2022-08-05T02:22:57.720Z,57.78
2022-08-05T02:26:03.986Z,58.47
2022-08-05T02:29:09.239Z,60.18
2022-08-05T02:32:31.440Z,62.87
2022-08-05T02:35:37.473Z,63.80
2022-08-05T02:38:43.247Z,62.32
2022-08-05T02:42:00.739Z,59.61
2022-08-05T02:45:05.520Z,59.12
2022-08-05T02:48:12.954Z,60.59
2022-08-05T02:51:18.370Z,62.71
2022-08-05T02:54:35.668Z,64.10
2022-08-05T02:58:11.718Z,65.37
2022-08-05T03:01:05.012Z,65.39
2022-08-05T03:04:14.305Z,65.28
2022-08-05T03:07:40.496Z,66.51
2022-08-05T03:10:43.865Z,69.89
2022-08-05T03:14:07.991Z,72.03
2022-08-05T03:17:11.059Z,72.34
2022-08-05T03:20:15.254Z,73.03
2022-08-05T03:23:18.371Z,77.42
2022-08-05T03:26:31.866Z,78.08
2022-08-05T03:29:45.473Z,78.93
2022-08-05T03:32:59.465Z,80.32
2022-08-05T03:36:03.718Z,75.15
2022-08-05T03:39:13.070Z,74.56
2022-08-05T03:42:23.135Z,75.29
2022-08-05T03:45:29.943Z,76.12
2022-08-05T03:48:52.823Z,76.60
2022-08-05T03:52:37.444Z,77.07
2022-08-05T03:56:09.532Z,76.96
2022-08-05T03:58:54.667Z,81.23
2022-08-05T04:01:59.709Z,86.58
2022-08-05T04:05:04.056Z,91.18
2022-08-05T04:08:29.700Z,92.82
2022-08-05T04:11:47.463Z,95.04
2022-08-05T04:14:54.014Z,95.14
2022-08-05T04:18:03.272Z,95.38
2022-08-05T04:21:10.908Z,92.72
2022-08-05T04:24:19.545Z,91.00
2022-08-05T04:27:33.036Z,92.85
2022-08-05T04:30:45.078Z,94.64
2022-08-05T04:34:18.207Z,98.21
2022-08-05T04:37:11.461Z,98.71
2022-08-05T04:40:19.519Z,100.00
2022-08-05T04:43:22.540Z,94.54
2022-08-05T04:46:28.809Z,97.96
2022-08-05T04:50:01.057Z,98.04
2022-08-05T04:52:54.334Z,95.18
2022-08-05T04:56:33.245Z,95.64
2022-08-05T04:59:33.570Z,94.55
2022-08-05T05:02:43.271Z,95.69
2022-08-05T05:06:35.842Z,97.83
2022-08-05T05:09:09.849Z,95.61
2022-08-05T05:12:18.062Z,82.58
2022-08-05T05:15:57.895Z,88.43
2022-08-05T05:19:09.052Z,94.53
2022-08-05T05:22:23.077Z,100.00
2022-08-05T05:25:32.965Z,100.00
2022-08-05T05:28:45.368Z,100.00
2022-08-05T05:31:48.248Z,100.00
2022-08-05T05:34:52.468Z,100.00
2022-08-05T05:38:00.088Z,100.00
2022-08-05T05:41:04.182Z,100.00
2022-08-05T05:44:35.938Z,100.00
2022-08-05T05:48:07.028Z,100.00
2022-08-05T05:50:58.981Z,100.00
2022-08-05T05:54:18.089Z,100.00
2022-08-05T05:57:22.629Z,100.00
2022-08-05T06:00:31.391Z,100.00
2022-08-05T06:03:53.649Z,100.00
2022-08-05T06:06:57.365Z,100.00
2022-08-05T06:10:09.728Z,100.00
2022-08-05T06:13:13.537Z,100.00
2022-08-05T06:16:29.970Z,100.00
2022-08-05T06:19:35.795Z,100.00
2022-08-05T06:22:41.358Z,100.00
2022-08-05T06:26:12.644Z,100.00
2022-08-05T06:29:43.007Z,100.00
2022-08-05T06:32:32.551Z,100.00
2022-08-05T06:36:07.184Z,100.00
2022-08-05T06:38:58.908Z,100.00
2022-08-05T06:42:04.105Z,100.00
2022-08-05T06:45:09.186Z,100.00
2022-08-05T06:48:52.871Z,100.00
2022-08-05T06:51:36.629Z,100.00
2022-08-05T06:54:43.714Z,100.00
2022-08-05T06:57:57.444Z,100.00
2022-08-05T07:01:07.702Z,100.00
2022-08-05T07:04:13.903Z,100.00
2022-08-05T07:07:17.177Z,100.00
2022-08-05T07:10:38.485Z,100.00
2022-08-05T07:13:59.913Z,100.00
2022-08-05T07:17:57.118Z,100.00
2022-08-05T07:20:33.358Z,100.00
2022-08-05T07:23:37.459Z,100.00
2022-08-05T07:26:52.932Z,100.00
2022-08-05T07:30:24.440Z,100.00
2022-08-05T07:33:35.268Z,100.00
2022-08-05T07:36:41.966Z,100.00
2022-08-05T07:40:08.397Z,100.00
2022-08-05T07:43:14.600Z,100.00
2022-08-05T07:46:25.541Z,100.00
2022-08-05T07:49:28.657Z,100.00
2022-08-05T07:52:32.796Z,100.00
2022-08-05T07:55:44.303Z,100.00
2022-08-05T07:58:59.370Z,100.00
2022-08-05T08:02:03.195Z,100.00
2022-08-05T08:05:07.029Z,100.00
2022-08-05T08:08:12.405Z,100.00
2022-08-05T08:11:15.906Z,100.00
2022-08-05T08:14:19.248Z,100.00
2022-08-05T08:17:22.651Z,100.00
2022-08-05T08:21:00.235Z,100.00
2022-08-05T08:24:02.841Z,100.00
2022-08-05T08:27:08.543Z,100.00
2022-08-05T08:30:28.479Z,100.00
2022-08-05T08:33:37.860Z,100.00
2022-08-05T08:36:48.810Z,100.00
2022-08-05T08:39:59.086Z,100.00
2022-08-05T08:43:20.940Z,100.00
2022-08-05T08:46:29.167Z,100.00
2022-08-05T08:50:23.196Z,100.00
2022-08-05T08:53:11.864Z,100.00
2022-08-05T08:56:17.418Z,100.00
2022-08-05T08:59:21.600Z,100.00
2022-08-05T09:02:30.446Z,100.00
2022-08-05T09:05:38.334Z,100.00
2022-08-05T09:08:41.975Z,98.78
2022-08-05T09:11:51.911Z,96.52
2022-08-05T09:15:06.411Z,97.78
2022-08-05T09:18:13.500Z,99.10
2022-08-05T09:21:20.610Z,95.63
2022-08-05T09:24:39.248Z,98.26
2022-08-05T09:28:04.245Z,95.58
2022-08-05T09:31:22.366Z,94.65
2022-08-05T09:34:47.797Z,92.07
2022-08-05T09:38:12.174Z,92.07
2022-08-05T09:41:16.098Z,91.09
2022-08-05T09:44:34.156Z,88.72
2022-08-05T09:47:55.197Z,89.42
2022-08-05T09:51:01.244Z,88.12
2022-08-05T09:54:06.876Z,90.80
2022-08-05T09:57:20.812Z,89.42
2022-08-05T10:00:30.586Z,86.39
2022-08-05T10:03:56.687Z,85.33
2022-08-05T10:06:59.094Z,85.32
2022-08-05T10:10:15.265Z,81.31
2022-08-05T10:13:31.670Z,83.66
2022-08-05T10:16:52.823Z,81.21
2022-08-05T10:20:03.718Z,80.83
2022-08-05T10:23:34.209Z,81.53
2022-08-05T10:26:37.770Z,78.63
2022-08-05T10:30:07.071Z,81.53
2022-08-05T10:33:18.675Z,77.58
2022-08-05T10:36:23.669Z,77.83
2022-08-05T10:40:03.420Z,74.24
2022-08-05T10:43:00.765Z,77.07
2022-08-05T10:46:06.353Z,77.16
2022-08-05T10:49:16.858Z,74.09
2022-08-05T10:52:47.041Z,73.01
2022-08-05T10:56:14.675Z,72.68
2022-08-05T11:00:03.523Z,71.12
2022-08-05T11:03:24.501Z,71.35
2022-08-05T11:06:31.277Z,71.78
2022-08-05T11:09:46.469Z,72.10
2022-08-05T11:12:50.538Z,71.63
2022-08-05T11:16:47.928Z,69.12
2022-08-05T11:20:10.111Z,69.25
2022-08-05T11:24:02.765Z,71.62
2022-08-05T11:27:45.796Z,72.43
2022-08-05T11:31:54.519Z,69.83
2022-08-05T11:34:51.144Z,68.35
2022-08-05T11:38:30.747Z,67.53
2022-08-05T11:41:56.430Z,69.04
2022-08-05T11:45:01.817Z,66.18
2022-08-05T11:48:09.612Z,67.21
2022-08-05T11:51:44.684Z,67.50
2022-08-05T11:54:40.628Z,67.68
2022-08-05T11:58:10.861Z,68.34
2022-08-05T12:01:12.321Z,64.24
2022-08-05T12:04:22.288Z,64.18
2022-08-05T12:08:07.899Z,60.55
2022-08-05T12:10:50.629Z,61.59
2022-08-05T12:13:58.569Z,57.31
2022-08-05T12:18:00.723Z,59.05
2022-08-05T12:20:33.520Z,59.56
2022-08-05T12:23:36.710Z,62.04
2022-08-05T12:26:48.481Z,60.89
2022-08-05T12:30:05.107Z,61.59
2022-08-05T12:33:27.622Z,61.27
2022-08-05T12:36:31.883Z,59.97
2022-08-05T12:39:38.550Z,63.53
2022-08-05T12:42:41.806Z,62.93
2022-08-05T12:45:56.557Z,61.94
2022-08-05T12:49:01.041Z,60.92
2022-08-05T12:52:24.011Z,61.91
2022-08-05T12:55:33.073Z,58.82
2022-08-05T12:58:53.844Z,60.03
2022-08-05T13:02:06.812Z,60.44
2022-08-05T13:05:12.728Z,62.06
2022-08-05T13:08:19.527Z,58.51
2022-08-05T13:11:25.565Z,57.13
2022-08-05T13:15:05.112Z,58.20
2022-08-05T13:18:10.612Z,60.70
2022-08-05T13:21:13.592Z,60.73
2022-08-05T13:24:27.809Z,58.88
2022-08-05T13:27:43.007Z,57.02
2022-08-05T13:30:45.803Z,60.57
2022-08-05T13:34:25.043Z,54.18
2022-08-05T13:37:16.259Z,54.55
2022-08-05T13:40:51.487Z,51.54
2022-08-05T13:43:55.461Z,49.67
2022-08-05T13:47:04.592Z,48.21
2022-08-05T13:50:16.678Z,49.86
2022-08-05T13:53:20.042Z,45.93
2022-08-05T13:56:22.893Z,46.21
2022-08-05T13:59:26.935Z,44.54
2022-08-05T14:02:31.313Z,46.09
2022-08-05T14:06:24.347Z,47.66
2022-08-05T14:08:59.567Z,51.40
2022-08-05T14:12:17.240Z,53.64
2022-08-05T14:16:09.044Z,53.76
2022-08-05T14:18:43.963Z,53.86
2022-08-05T14:22:08.737Z,54.25
2022-08-05T14:25:21.858Z,53.85
2022-08-05T14:28:26.861Z,54.22
2022-08-05T14:31:54.589Z,52.11
2022-08-05T14:34:53.004Z,52.33
2022-08-05T14:37:59.500Z,51.36
2022-08-05T14:41:06.788Z,52.38
2022-08-05T14:44:20.005Z,51.20
2022-08-05T14:48:04.270Z,51.85
2022-08-05T14:50:46.353Z,52.36
2022-08-05T14:54:26.152Z,52.83
2022-08-05T14:57:13.710Z,51.87
2022-08-05T15:00:16.845Z,51.33
2022-08-05T15:03:22.969Z,51.44
2022-08-05T15:06:27.888Z,52.13
2022-08-05T15:09:52.680Z,50.99
2022-08-05T15:13:03.777Z,51.21
2022-08-05T15:16:07.665Z,52.08
2022-08-05T15:19:23.832Z,53.41
2022-08-05T15:22:28.482Z,52.15
2022-08-05T15:25:41.137Z,53.08
2022-08-05T15:28:54.655Z,53.02
2022-08-05T15:31:57.453Z,52.87
2022-08-05T15:35:10.766Z,53.99
2022-08-05T15:38:35.528Z,55.66
2022-08-05T15:41:56.299Z,56.98
2022-08-05T15:45:01.874Z,57.18
2022-08-05T15:48:05.612Z,57.50
2022-08-05T15:51:09.900Z,56.90
2022-08-05T15:54:15.063Z,57.11
2022-08-05T15:57:19.830Z,57.52
2022-08-05T16:00:32.598Z,57.57
2022-08-05T16:03:48.482Z,58.12
2022-08-05T16:06:51.774Z,58.42
2022-08-05T16:09:55.284Z,58.62
2022-08-05T16:12:59.370Z,60.51
2022-08-05T16:16:02.162Z,60.75
2022-08-05T16:19:06.721Z,60.16
2022-08-05T16:22:13.273Z,60.63
2022-08-05T16:25:16.303Z,60.53
2022-08-05T16:28:20.377Z,61.22
2022-08-05T16:31:27.029Z,58.63
2022-08-05T16:34:50.912Z,58.73
2022-08-05T16:38:15.523Z,59.89
2022-08-05T16:41:29.762Z,58.54
2022-08-05T16:44:41.971Z,58.04
2022-08-05T16:47:55.575Z,58.73
2022-08-05T16:51:00.286Z,60.13
2022-08-05T16:54:16.060Z,60.91
2022-08-05T16:57:49.477Z,62.24
2022-08-05T17:00:49.516Z,63.55
2022-08-05T17:03:52.852Z,64.20
2022-08-05T17:07:00.497Z,80.62
2022-08-05T17:10:03.864Z,97.00
2022-08-05T17:13:16.686Z,100.00
2022-08-05T17:16:32.956Z,100.00
2022-08-05T17:19:36.725Z,100.00
2022-08-05T17:22:39.455Z,100.00
2022-08-05T17:25:42.901Z,100.00
2022-08-05T17:28:47.183Z,100.00
2022-08-05T17:31:58.544Z,100.00
2022-08-05T17:35:02.190Z,100.00
2022-08-05T17:41:22.948Z,100.00
2022-08-05T17:44:33.856Z,100.00
2022-08-05T17:47:39.789Z,100.00
2022-08-05T17:50:42.655Z,100.00
2022-08-05T17:53:45.944Z,100.00
2022-08-05T17:56:57.150Z,100.00
2022-08-05T18:00:05.442Z,100.00
2022-08-05T18:03:10.247Z,100.00
2022-08-05T18:06:15.133Z,100.00
2022-08-05T18:09:18.722Z,100.00
2022-08-05T18:12:24.271Z,100.00
2022-08-05T18:15:27.772Z,100.00
2022-08-05T18:18:39.848Z,100.00
2022-08-05T18:22:08.963Z,100.00
2022-08-05T18:25:06.315Z,100.00
2022-08-05T18:28:09.842Z,100.00
2022-08-05T18:31:12.709Z,100.00
2022-08-05T18:34:21.735Z,100.00
2022-08-05T18:37:33.504Z,100.00
2022-08-05T18:41:56.358Z,100.00
2022-08-05T18:44:05.498Z,100.00
2022-08-05T18:47:09.349Z,100.00
2022-08-05T18:50:45.069Z,100.00
2022-08-05T18:53:50.452Z,100.00
2022-08-05T18:56:53.425Z,100.00
2022-08-05T19:00:03.493Z,100.00
2022-08-05T19:03:06.965Z,100.00
2022-08-05T19:06:22.143Z,100.00
2022-08-05T19:09:40.112Z,100.00
2022-08-05T19:12:43.448Z,100.00
2022-08-05T19:15:59.109Z,100.00
2022-08-05T19:19:03.879Z,100.00
2022-08-05T19:22:09.008Z,100.00
2022-08-05T19:25:21.650Z,100.00
2022-08-05T19:28:33.856Z,100.00
2022-08-05T19:31:44.776Z,100.00
2022-08-05T19:34:54.685Z,100.00
2022-08-05T19:38:05.960Z,100.00
2022-08-05T19:41:09.713Z,100.00
2022-08-05T19:44:14.109Z,100.00
2022-08-05T19:47:17.536Z,100.00
2022-08-05T19:50:21.043Z,100.00
2022-08-05T19:54:04.243Z,100.00
2022-08-05T19:56:52.258Z,100.00
2022-08-05T20:00:02.462Z,100.00
2022-08-05T20:03:14.345Z,100.00
2022-08-05T20:06:23.386Z,100.00
2022-08-05T20:09:53.679Z,100.00
2022-08-05T20:12:56.248Z,100.00
2022-08-05T20:15:59.772Z,100.00
2022-08-05T20:19:03.162Z,100.00
2022-08-05T20:22:06.346Z,100.00
2022-08-05T20:25:13.810Z,100.00
2022-08-05T20:28:16.603Z,100.00
2022-08-05T20:31:21.534Z,100.00
2022-08-05T20:34:25.958Z,100.00
2022-08-05T20:38:06.507Z,100.00
2022-08-05T20:40:53.194Z,100.00
2022-08-05T20:44:06.048Z,100.00
2022-08-05T20:47:31.810Z,100.00
2022-08-05T20:50:37.744Z,100.00
2022-08-05T20:53:56.977Z,100.00
2022-08-05T20:57:01.291Z,100.00
2022-08-05T21:00:20.169Z,100.00
2022-08-05T21:03:34.541Z,100.00
2022-08-05T21:06:37.965Z,100.00
2022-08-05T21:09:53.390Z,100.00
2022-08-05T21:13:09.020Z,100.00
2022-08-05T21:16:14.159Z,100.00
2022-08-05T21:19:16.991Z,100.00
2022-08-05T21:22:23.903Z,100.00
2022-08-05T21:25:33.700Z,100.00
2022-08-05T21:28:40.119Z,100.00
2022-08-05T21:31:53.201Z,100.00
2022-08-05T21:35:08.776Z,100.00
2022-08-05T21:38:21.009Z,100.00
2022-08-05T21:41:23.822Z,100.00
2022-08-05T21:44:27.979Z,100.00
2022-08-05T21:47:55.823Z,100.00
2022-08-05T21:50:54.448Z,100.00
2022-08-05T21:53:59.608Z,100.00
2022-08-05T21:57:30.900Z,100.00
2022-08-05T22:00:31.266Z,100.00
2022-08-05T22:03:48.905Z,100.00
2022-08-05T22:06:57.002Z,100.00
2022-08-05T22:10:00.134Z,100.00
2022-08-05T22:14:04.976Z,100.00
2022-08-05T22:16:50.889Z,100.00
2022-08-05T22:19:57.174Z,100.00
2022-08-05T22:23:23.981Z,100.00
2022-08-05T22:26:49.645Z,100.00
2022-08-05T22:29:54.263Z,100.00
2022-08-05T22:32:58.485Z,100.00
2022-08-05T22:36:01.243Z,100.00
2022-08-05T22:39:09.471Z,100.00
2022-08-05T22:42:21.521Z,100.00
2022-08-05T22:45:30.656Z,100.00
2022-08-05T22:48:35.421Z,100.00
2022-08-05T22:52:05.196Z,100.00
2022-08-05T22:55:01.134Z,100.00
2022-08-05T22:58:04.230Z,100.00
2022-08-05T23:01:07.916Z,100.00
2022-08-05T23:04:12.264Z,100.00
2022-08-05T23:07:15.175Z,100.00
2022-08-05T23:10:19.843Z,100.00
2022-08-05T23:13:23.294Z,100.00
2022-08-05T23:16:40.266Z,100.00
2022-08-05T23:19:51.044Z,100.00
2022-08-05T23:22:59.168Z,100.00
2022-08-05T23:26:01.941Z,100.00
2022-08-05T23:29:05.847Z,100.00
2022-08-05T23:32:12.951Z,100.00
2022-08-05T23:35:17.954Z,100.00
2022-08-05T23:38:20.658Z,100.00
2022-08-05T23:41:23.581Z,100.00
2022-08-05T23:44:27.854Z,100.00
2022-08-05T23:47:34.582Z,100.00
2022-08-05T23:50:52.409Z,100.00
2022-08-05T23:53:55.147Z,100.00
2022-08-05T23:57:05.189Z,100.00
